Time;durP1;ratioP1;P1;durP2;ratioP2;P2;SDS_P1;SDS_P2;PMS_P1;PMS_P2;Temp;Humidity;BMP_temperature;BMP_pressure;BME280_temperature;BME280_humidity;BME280_pressure;Samples;Min_cycle;Max_cycle;Signal;HPM_P1;HPM_P2
2023/06/25 00:00:38;;;;;;;3.60;1.70;;;;;;;17.74;100.00;94805.38;5059437;28;20383;-87
2023/06/25 00:03:03;;;;;;;2.33;0.95;;;;;;;17.65;100.00;94800.81;5059762;28;20032;-86
2023/06/25 00:05:31;;;;;;;2.88;1.40;;;;;;;17.67;100.00;94805.78;5059350;28;20353;-87
2023/06/25 00:07:57;;;;;;;2.45;1.17;;;;;;;17.47;100.00;94802.53;5058855;28;20049;-87
2023/06/25 00:10:22;;;;;;;2.25;1.25;;;;;;;17.45;100.00;94799.41;5043224;28;20047;-87
2023/06/25 00:12:48;;;;;;;6.63;1.20;;;;;;;17.47;100.00;94799.88;5043102;28;20036;-86
2023/06/25 00:15:13;;;;;;;5.07;1.50;;;;;;;17.43;100.00;94796.28;5059392;28;20043;-87
2023/06/25 00:17:39;;;;;;;2.13;1.13;;;;;;;17.71;100.00;94801.44;5042340;28;20437;-86
2023/06/25 00:20:05;;;;;;;6.57;1.40;;;;;;;18.05;100.00;94789.53;5058973;28;20699;-86
2023/06/25 00:22:30;;;;;;;6.10;1.30;;;;;;;18.21;100.00;94786.47;5059009;28;20471;-86
2023/06/25 00:24:56;;;;;;;3.00;1.25;;;;;;;18.28;100.00;94786.03;5059046;28;20330;-87
2023/06/25 00:27:21;;;;;;;2.63;1.35;;;;;;;18.34;100.00;94785.59;5058350;28;20120;-87
2023/06/25 00:29:47;;;;;;;5.07;1.70;;;;;;;18.55;100.00;94789.56;5042648;28;20036;-86
2023/06/25 00:32:15;;;;;;;3.15;1.50;;;;;;;18.68;100.00;94793.97;5042354;28;20056;-87
2023/06/25 00:34:41;;;;;;;4.18;1.50;;;;;;;18.78;100.00;94787.59;5059058;28;20115;-86
2023/06/25 00:37:17;;;;;;;7.40;1.30;;;;;;;18.75;100.00;94786.34;5058742;28;20129;-86
2023/06/25 00:39:44;;;;;;;3.30;1.38;;;;;;;18.68;100.00;94779.91;5059071;28;20038;-87
2023/06/25 00:42:09;;;;;;;2.03;1.45;;;;;;;18.61;100.00;94781.16;5058939;28;20070;-86
2023/06/25 00:44:40;;;;;;;4.35;1.45;;;;;;;18.38;100.00;94785.78;5058632;28;20032;-86
2023/06/25 00:47:15;;;;;;;4.00;1.52;;;;;;;18.34;100.00;94779.50;5058815;28;20037;-86
2023/06/25 00:49:46;;;;;;;3.13;1.48;;;;;;;18.01;100.00;94777.94;5058447;28;20040;-86
2023/06/25 00:52:13;;;;;;;2.83;1.30;;;;;;;17.83;100.00;94779.72;5058692;28;20029;-86
2023/06/25 00:54:40;;;;;;;3.78;1.45;;;;;;;17.86;100.00;94775.66;5058465;28;20066;-86
2023/06/25 00:57:06;;;;;;;2.95;1.60;;;;;;;17.86;100.00;94768.50;5057937;28;20079;-87
2023/06/25 00:59:37;;;;;;;5.35;1.63;;;;;;;17.88;100.00;94762.91;5058792;28;20155;-87
2023/06/25 01:02:32;;;;;;;7.07;1.80;;;;;;;17.57;100.00;94764.41;5058561;28;20028;-86
2023/06/25 01:05:12;;;;;;;2.15;1.33;;;;;;;17.57;100.00;94759.13;5075317;28;20310;-86
2023/06/25 01:07:43;;;;;;;4.35;1.65;;;;;;;17.71;100.00;94759.03;5057774;28;20564;-86
2023/06/25 01:10:10;;;;;;;6.13;1.58;;;;;;;17.53;100.00;94761.59;5058527;28;20127;-86
2023/06/25 01:12:35;;;;;;;5.13;1.33;;;;;;;17.23;100.00;94763.09;5058177;28;20506;-87
2023/06/25 01:15:15;;;;;;;5.68;1.35;;;;;;;17.15;100.00;94758.50;5058337;28;20032;-86
2023/06/25 01:17:41;;;;;;;3.67;1.40;;;;;;;17.16;100.00;94760.06;5058816;28;20372;-86
2023/06/25 01:20:11;;;;;;;2.85;1.50;;;;;;;17.25;100.00;94758.28;5058014;28;20040;-87
2023/06/25 01:22:38;;;;;;;5.18;1.80;;;;;;;16.76;100.00;94758.75;5058903;28;20036;-87
2023/06/25 01:25:04;;;;;;;2.25;1.55;;;;;;;16.81;100.00;94752.56;5058160;28;20435;-87
2023/06/25 01:27:33;;;;;;;4.05;1.55;;;;;;;16.93;100.00;94760.78;5041144;28;20036;-87
2023/06/25 01:29:59;;;;;;;4.18;1.80;;;;;;;16.64;100.00;94764.56;5058347;28;20054;-87
2023/06/25 01:32:25;;;;;;;3.97;1.50;;;;;;;16.90;100.00;94757.94;5058058;28;20070;-87
2023/06/25 01:34:51;;;;;;;2.25;1.27;;;;;;;17.01;100.00;94758.56;5075640;28;20440;-86
2023/06/25 01:37:17;;;;;;;5.10;1.50;;;;;;;17.15;100.00;94758.50;5057506;28;20425;-86
2023/06/25 01:39:47;;;;;;;2.80;1.70;;;;;;;17.06;100.00;94759.19;5061067;28;20032;-86
2023/06/25 01:42:12;;;;;;;8.80;1.83;;;;;;;16.78;100.00;94753.94;5077747;28;20459;-87
2023/06/25 01:44:39;;;;;;;3.28;1.50;;;;;;;16.43;100.00;94756.25;5060968;28;20079;-86
2023/06/25 01:47:04;;;;;;;4.78;1.60;;;;;;;16.59;100.00;94764.66;5070704;28;20036;-86
2023/06/25 01:49:30;;;;;;;5.38;1.77;;;;;;;16.32;100.00;94762.81;5040280;28;20046;-86
2023/06/25 01:51:55;;;;;;;4.88;1.98;;;;;;;16.07;100.00;94765.63;5040491;28;20471;-86
2023/06/25 01:54:21;;;;;;;4.88;1.70;;;;;;;15.93;100.00;94762.19;5075035;28;20074;-86
2023/06/25 01:56:46;;;;;;;6.90;1.73;;;;;;;15.99;100.00;94757.59;5056925;28;20044;-86
2023/06/25 01:59:13;;;;;;;10.93;1.50;;;;;;;15.85;100.00;94758.31;5037620;28;20033;-86
2023/06/25 02:01:39;;;;;;;2.28;1.60;;;;;;;15.90;100.00;94760.13;5057446;28;20384;-86
2023/06/25 02:04:04;;;;;;;4.32;1.38;;;;;;;16.16;100.00;94755.16;5056968;28;20041;-86
2023/06/25 02:06:30;;;;;;;8.68;1.83;;;;;;;15.99;100.00;94758.38;5040375;28;20042;-86
2023/06/25 02:08:56;;;;;;;4.90;1.67;;;;;;;15.81;100.00;94757.34;5057093;28;20036;-86
2023/06/25 02:11:21;;;;;;;4.50;1.88;;;;;;;15.76;100.00;94747.66;5057245;28;20040;-86
2023/06/25 02:13:47;;;;;;;1.98;1.20;;;;;;;16.00;100.00;94746.75;5075077;28;20036;-86
2023/06/25 02:16:12;;;;;;;3.88;1.73;;;;;;;16.19;100.00;94741.34;5056751;28;20119;-86
2023/06/25 02:18:38;;;;;;;2.67;1.50;;;;;;;16.33;100.00;94751.16;5057059;28;20098;-87
2023/06/25 02:21:03;;;;;;;2.58;1.58;;;;;;;16.28;100.00;94748.63;5057184;28;20123;-86
2023/06/25 02:23:29;;;;;;;6.45;1.83;;;;;;;16.20;100.00;94742.16;5054027;28;20036;-87
2023/06/25 02:25:54;;;;;;;6.93;1.65;;;;;;;16.33;100.00;94738.72;5056759;28;20033;-86
2023/06/25 02:28:20;;;;;;;3.00;1.50;;;;;;;16.16;100.00;94730.59;5056293;28;20040;-86
2023/06/25 02:30:45;;;;;;;3.00;1.40;;;;;;;16.05;100.00;94730.00;5057041;28;20036;-86
2023/06/25 02:33:11;;;;;;;6.03;1.52;;;;;;;15.95;100.00;94742.34;5056807;28;20032;-86
2023/06/25 02:35:41;;;;;;;8.38;1.80;;;;;;;15.87;100.00;94728.97;5057212;28;20032;-86
2023/06/25 02:38:07;;;;;;;2.65;1.40;;;;;;;16.09;100.00;94733.63;5056485;28;20472;-87
2023/06/25 02:40:32;;;;;;;4.53;1.42;;;;;;;16.23;100.00;94725.69;5057306;28;20127;-87
2023/06/25 02:42:58;;;;;;;3.58;1.45;;;;;;;16.29;100.00;94731.66;5057197;28;20121;-87
2023/06/25 02:45:23;;;;;;;2.45;1.80;;;;;;;16.19;100.00;94727.38;5057538;28;20037;-86
2023/06/25 02:47:49;;;;;;;3.47;1.70;;;;;;;16.18;100.00;94726.56;5056577;28;20043;-86
2023/06/25 02:50:15;;;;;;;6.00;1.80;;;;;;;16.23;100.00;94725.69;5058468;28;20047;-87
2023/06/25 02:52:41;;;;;;;2.78;1.55;;;;;;;16.39;100.00;94724.31;5044530;28;20126;-86
2023/06/25 02:55:06;;;;;;;2.42;1.40;;;;;;;16.52;100.00;94720.09;5060499;28;20087;-86
2023/06/25 02:57:33;;;;;;;8.57;1.80;;;;;;;16.51;100.00;94715.09;5060086;28;20094;-86
2023/06/25 02:59:59;;;;;;;2.95;1.92;;;;;;;16.61;100.00;94722.03;5060783;28;20044;-86
2023/06/25 03:02:25;;;;;;;4.47;2.13;;;;;;;16.76;100.00;94720.94;5060683;28;20036;-86
2023/06/25 03:04:51;;;;;;;2.97;2.05;;;;;;;16.71;100.00;94723.69;5060399;28;20097;-86
2023/06/25 03:07:16;;;;;;;3.88;1.95;;;;;;;16.85;100.00;94723.66;5059928;28;20036;-86
2023/06/25 03:09:43;;;;;;;3.25;1.85;;;;;;;16.95;100.00;94724.22;5043698;28;20090;-86
2023/06/25 03:12:09;;;;;;;2.92;1.77;;;;;;;17.15;100.00;94724.09;5078247;28;20064;-86
2023/06/25 03:14:40;;;;;;;3.85;1.80;;;;;;;17.32;100.00;94718.16;5060258;28;20032;-86
2023/06/25 03:17:05;;;;;;;8.82;2.05;;;;;;;17.56;100.00;94724.97;5060139;28;20042;-86
2023/06/25 03:19:31;;;;;;;4.40;2.20;;;;;;;17.53;100.00;94727.16;5060661;28;20033;-86
2023/06/25 03:21:56;;;;;;;7.18;2.03;;;;;;;17.77;100.00;94733.19;5060566;28;20127;-86
2023/06/25 03:24:22;;;;;;;6.53;1.70;;;;;;;17.37;100.00;94732.06;5043604;28;20040;-86
2023/06/25 03:26:47;;;;;;;8.05;2.08;;;;;;;17.15;100.00;94738.13;5059508;28;20037;-86
2023/06/25 03:29:13;;;;;;;2.25;1.63;;;;;;;16.89;100.00;94746.59;5059997;28;20040;-86
2023/06/25 03:31:38;;;;;;;6.18;2.10;;;;;;;16.84;100.00;94737.97;5059849;28;20032;-86
2023/06/25 03:34:04;;;;;;;3.95;1.88;;;;;;;17.03;100.00;94745.81;5059701;28;20049;-86
2023/06/25 03:36:29;;;;;;;6.20;1.80;;;;;;;16.95;100.00;94740.09;5043349;28;20135;-86
2023/06/25 03:38:55;;;;;;;3.17;1.67;;;;;;;16.99;100.00;94737.66;5059359;28;20028;-86
2023/06/25 03:41:20;;;;;;;2.60;1.60;;;;;;;16.88;100.00;94741.59;5077018;28;20024;-86
2023/06/25 03:43:45;;;;;;;4.72;1.63;;;;;;;16.62;100.00;94744.75;5058902;28;20036;-86
2023/06/25 03:46:11;;;;;;;5.90;1.80;;;;;;;16.51;100.00;94742.34;5059133;28;20039;-86
2023/06/25 03:48:37;;;;;;;9.55;2.28;;;;;;;16.63;100.00;94743.69;5058487;28;20048;-86
2023/06/25 03:51:02;;;;;;;3.53;1.80;;;;;;;16.49;100.00;94739.19;5059098;28;20345;-86
2023/06/25 03:53:29;;;;;;;7.75;1.90;;;;;;;16.44;100.00;94747.22;5059425;28;20040;-86
2023/06/25 03:55:57;;;;;;;4.63;2.00;;;;;;;16.69;100.00;94734.56;5059435;28;20051;-86
2023/06/25 03:58:23;;;;;;;3.15;1.50;;;;;;;16.76;100.00;94734.94;5059185;28;20082;-86
2023/06/25 04:00:48;;;;;;;2.75;1.80;;;;;;;16.71;100.00;94735.06;5059091;28;20472;-86
2023/06/25 04:03:14;;;;;;;4.40;1.83;;;;;;;16.82;100.00;94730.31;5058832;28;20043;-86
2023/06/25 04:05:40;;;;;;;4.07;1.63;;;;;;;16.86;100.00;94727.88;5042187;28;20043;-86
2023/06/25 04:08:09;;;;;;;4.28;2.00;;;;;;;16.64;100.00;94724.09;5058382;28;20110;-87
2023/06/25 04:10:35;;;;;;;3.00;1.90;;;;;;;16.71;100.00;94729.75;5042368;28;20056;-86
2023/06/25 04:13:00;;;;;;;2.67;1.70;;;;;;;16.90;100.00;94721.69;5058806;28;20048;-87
2023/06/25 04:15:26;;;;;;;7.50;1.95;;;;;;;16.77;100.00;94731.22;5076845;28;20097;-86
2023/06/25 04:17:51;;;;;;;4.40;1.90;;;;;;;16.44;100.00;94735.88;5048030;28;20051;-86
2023/06/25 04:20:17;;;;;;;6.72;2.03;;;;;;;16.26;100.00;94738.31;5058770;28;20139;-86
2023/06/25 04:22:42;;;;;;;3.95;1.85;;;;;;;16.63;100.00;94738.38;5058886;28;20036;-88
2023/06/25 04:25:09;;;;;;;3.90;2.13;;;;;;;16.87;100.00;94727.59;5063005;28;20047;-88
2023/06/25 04:27:35;;;;;;;4.05;2.13;;;;;;;16.57;100.00;94740.38;5041968;28;20102;-88
2023/06/25 04:30:00;;;;;;;4.57;2.10;;;;;;;16.49;100.00;94747.13;5058848;28;20041;-88
2023/06/25 04:32:26;;;;;;;3.50;1.77;;;;;;;16.67;100.00;94742.78;5076547;28;20036;-88
2023/06/25 04:34:51;;;;;;;4.20;1.85;;;;;;;17.03;100.00;94740.50;5042001;28;20205;-88
2023/06/25 04:37:16;;;;;;;4.43;1.80;;;;;;;17.24;100.00;94738.94;5058491;28;20067;-88
2023/06/25 04:39:42;;;;;;;3.50;1.77;;;;;;;17.36;100.00;94746.38;5042179;28;20044;-88
2023/06/25 04:42:07;;;;;;;3.72;1.77;;;;;;;17.00;100.00;94751.66;5058971;28;20036;-87
2023/06/25 04:44:33;;;;;;;3.75;1.90;;;;;;;17.18;100.00;94750.75;5058526;28;20045;-87
2023/06/25 04:46:58;;;;;;;3.92;2.13;;;;;;;17.13;100.00;94758.78;5041756;28;20097;-88
2023/06/25 04:49:24;;;;;;;5.50;1.70;;;;;;;17.17;100.00;94759.78;5058435;28;20117;-91
2023/06/25 04:51:49;;;;;;;2.97;1.70;;;;;;;17.52;100.00;94748.66;5045502;28;20075;-86
2023/06/25 04:54:15;;;;;;;8.43;2.30;;;;;;;17.36;100.00;94748.22;5041924;28;20048;-86
2023/06/25 04:56:40;;;;;;;6.03;1.80;;;;;;;17.35;100.00;94755.38;5057788;28;20138;-86
2023/06/25 04:59:06;;;;;;;6.72;1.70;;;;;;;17.37;100.00;94749.78;5041428;28;20041;-86
2023/06/25 05:01:32;;;;;;;2.97;1.60;;;;;;;17.60;100.00;94750.56;5058392;28;20071;-88
2023/06/25 05:04:01;;;;;;;4.00;1.88;;;;;;;17.70;100.00;94752.19;5059080;28;20360;-90
2023/06/25 05:06:26;;;;;;;3.33;1.60;;;;;;;17.83;100.00;94761.16;5046631;28;20122;-90
2023/06/25 05:08:52;;;;;;;2.92;1.63;;;;;;;17.86;100.00;94754.44;5079225;28;20130;-89
2023/06/25 05:11:17;;;;;;;3.70;1.85;;;;;;;18.00;100.00;94752.50;5079344;28;20068;-89
2023/06/25 05:13:43;;;;;;;3.05;1.83;;;;;;;17.93;100.00;94758.25;5079235;28;20241;-89
2023/06/25 05:16:08;;;;;;;4.68;2.10;;;;;;;17.67;100.00;94752.78;5079316;28;20040;-89
2023/06/25 05:18:33;;;;;;;4.20;1.70;;;;;;;18.00;100.00;94757.03;5078974;28;20101;-89
2023/06/25 05:21:01;;;;;;;6.07;2.25;;;;;;;18.09;100.00;94752.59;5079694;28;20028;-89
2023/06/25 05:23:28;;;;;;;6.78;1.80;;;;;;;18.28;100.00;94756.88;5060642;28;20044;-89
2023/06/25 05:25:53;;;;;;;2.70;1.67;;;;;;;18.40;100.00;94754.41;5059344;28;20131;-89
2023/06/25 05:28:19;;;;;;;4.72;1.83;;;;;;;18.56;100.00;94746.03;5059330;28;20131;-89
2023/06/25 05:30:44;;;;;;;4.10;1.60;;;;;;;18.62;100.00;94752.75;5075444;28;20036;-90
2023/06/25 05:33:10;;;;;;;5.88;1.83;;;;;;;18.42;100.00;94749.56;5042353;28;20445;-89
2023/06/25 05:35:36;;;;;;;24.52;2.60;;;;;;;18.15;100.00;94754.00;5042442;28;20036;-90
2023/06/25 05:38:04;;;;;;;3.08;1.67;;;;;;;18.59;100.00;94746.19;5042503;28;20044;-88
2023/06/25 05:40:29;;;;;;;3.55;1.80;;;;;;;18.86;100.00;94751.53;5059399;28;20039;-92
2023/06/25 05:43:04;;;;;;;5.90;1.60;;;;;;;18.99;100.00;94748.00;5042690;28;20079;-93
2023/06/25 05:45:29;;;;;;;18.05;7.20;;;;;;;18.99;100.00;94755.13;5075917;28;20119;-89
2023/06/25 05:47:54;;;;;;;16.17;8.00;;;;;;;19.21;100.00;94751.59;5058454;28;20493;-90
2023/06/25 05:50:23;;;;;;;3.65;1.63;;;;;;;19.34;100.00;94750.66;5058205;28;20040;-89
2023/06/25 05:52:48;;;;;;;23.10;5.03;;;;;;;19.42;100.00;94749.06;5075220;28;20043;-89
2023/06/25 05:55:16;;;;;;;9.10;3.10;;;;;;;19.41;100.00;94750.16;5058304;28;20041;-88
2023/06/25 05:57:43;;;;;;;5.65;2.40;;;;;;;19.50;100.00;94750.16;5058494;28;20171;-89
2023/06/25 06:00:09;;;;;;;4.07;1.70;;;;;;;19.55;100.00;94750.03;5058447;28;20127;-90
2023/06/25 06:02:34;;;;;;;2.17;1.42;;;;;;;19.59;100.00;94748.28;5058337;28;20411;-89
2023/06/25 06:05:10;;;;;;;2.00;1.35;;;;;;;19.72;100.00;94751.06;5041582;28;20048;-89
2023/06/25 06:07:35;;;;;;;15.02;4.80;;;;;;;19.87;100.00;94755.88;5042330;28;20093;-90
2023/06/25 06:10:01;;;;;;;7.25;2.22;;;;;;;19.82;100.00;94749.97;5041643;28;20048;-89
2023/06/25 06:12:27;;;;;;;2.53;1.48;;;;;;;19.84;100.00;94753.88;5075975;28;20047;-89
2023/06/25 06:14:53;;;;;;;5.47;2.70;;;;;;;20.22;100.00;94751.56;5058599;28;20353;-89
2023/06/25 06:17:19;;;;;;;3.85;1.80;;;;;;;20.24;100.00;94755.47;5058317;28;20456;-89
2023/06/25 06:19:47;;;;;;;3.15;1.63;;;;;;;20.35;100.00;94758.56;5058658;28;20040;-89
2023/06/25 06:22:13;;;;;;;11.90;3.28;;;;;;;20.42;100.00;94756.19;5041871;28;20043;-90
2023/06/25 06:24:39;;;;;;;9.35;2.53;;;;;;;20.52;100.00;94759.59;5059211;28;20040;-89
2023/06/25 06:27:05;;;;;;;6.32;2.42;;;;;;;20.67;100.00;94767.03;5062702;28;20055;-89
2023/06/25 06:29:33;;;;;;;6.60;1.88;;;;;;;20.75;100.00;94766.19;5062538;28;20372;-91
2023/06/25 06:32:01;;;;;;;5.63;1.40;;;;;;;20.90;100.00;94767.56;5061661;28;20079;-89
2023/06/25 06:34:26;;;;;;;2.38;1.48;;;;;;;21.01;100.00;94764.47;5062338;28;20047;-90
2023/06/25 06:36:56;;;;;;;9.57;1.80;;;;;;;20.98;100.00;94763.28;5061245;28;20044;-89
2023/06/25 06:39:32;;;;;;;;;;;;;;;;;;;;;
2023/06/25 06:41:58;;;;;;;5.22;1.60;;;;;;;20.98;100.00;94762.47;5063634;28;20031;-89
2023/06/25 06:44:23;;;;;;;7.25;1.80;;;;;;;20.98;100.00;94765.94;5044815;28;20044;-90
2023/06/25 06:46:49;;;;;;;6.47;2.05;;;;;;;21.04;100.00;94772.63;5061483;28;20032;-89
2023/06/25 06:49:16;;;;;;;9.55;1.75;;;;;;;21.15;100.00;94770.34;5061578;28;20041;-90
2023/06/25 06:51:43;;;;;;;7.07;1.80;;;;;;;21.23;100.00;94774.06;5062425;28;20040;-90
2023/06/25 06:54:10;;;;;;;5.75;1.60;;;;;;;21.29;100.00;94775.41;5061958;28;20047;-90
2023/06/25 06:56:37;;;;;;;3.15;1.40;;;;;;;21.45;100.00;94769.50;5062014;28;20040;-88
2023/06/25 06:59:03;;;;;;;4.93;1.80;;;;;;;21.38;100.00;94775.34;5045036;28;20451;-87
2023/06/25 07:01:29;;;;;;;7.85;2.42;;;;;;;21.55;100.00;94771.75;5044626;28;20044;-86
2023/06/25 07:03:54;;;;;;;2.78;1.90;;;;;;;21.58;100.00;94772.97;5078034;28;20393;-84
2023/06/25 07:06:20;;;;;;;6.20;1.80;;;;;;;21.55;100.00;94771.75;5078240;28;20373;-84
2023/06/25 07:08:46;;;;;;;4.00;1.85;;;;;;;21.63;100.00;94767.47;5060065;28;20045;-85
2023/06/25 07:11:16;;;;;;;4.45;1.65;;;;;;;21.63;100.00;94772.78;5078105;28;20048;-85
2023/06/25 07:13:43;;;;;;;7.95;1.98;;;;;;;21.66;100.00;94769.50;5078241;28;20044;-84
2023/06/25 07:16:08;;;;;;;3.15;1.35;;;;;;;21.64;100.00;94777.00;5078092;28;20081;-84
2023/06/25 07:18:33;;;;;;;2.80;1.50;;;;;;;21.67;100.00;94781.72;5059630;28;20052;-84
2023/06/25 07:20:59;;;;;;;2.67;1.70;;;;;;;21.90;100.00;94778.69;5077908;28;20036;-84
2023/06/25 07:23:24;;;;;;;6.03;1.85;;;;;;;21.95;100.00;94778.47;5043325;28;20067;-84
2023/06/25 07:25:50;;;;;;;2.90;1.92;;;;;;;21.98;100.00;94780.47;5059716;28;20126;-84
2023/06/25 07:28:15;;;;;;;6.18;1.80;;;;;;;22.02;100.00;94775.25;5059424;28;20154;-85
2023/06/25 07:30:41;;;;;;;6.97;1.60;;;;;;;22.19;100.00;94771.63;5059819;28;20040;-85
2023/06/25 07:33:07;;;;;;;3.83;1.60;;;;;;;22.24;100.00;94770.63;5059176;28;20036;-84
2023/06/25 07:35:33;;;;;;;3.78;1.60;;;;;;;22.17;100.00;94774.63;5076044;28;20083;-84
2023/06/25 07:37:58;;;;;;;3.28;1.50;;;;;;;22.38;100.00;94768.41;5074563;28;20076;-84
2023/06/25 07:40:24;;;;;;;4.13;1.42;;;;;;;22.42;100.00;94761.28;5076407;28;20041;-85
2023/06/25 07:42:49;;;;;;;3.92;1.80;;;;;;;22.43;100.00;94767.41;5075069;28;20878;-84
2023/06/25 07:45:15;;;;;;;3.25;1.75;;;;;;;22.43;100.00;94770.84;5058082;28;20090;-85
2023/06/25 07:47:40;;;;;;;3.30;1.85;;;;;;;22.49;100.00;94760.78;5058294;28;20456;-84
2023/06/25 07:50:06;;;;;;;7.30;2.97;;;;;;;22.56;100.00;94771.66;5058422;28;20132;-84
2023/06/25 07:52:32;;;;;;;7.72;2.25;;;;;;;22.64;100.00;94761.22;5048576;28;20493;-84
2023/06/25 07:54:57;;;;;;;3.33;1.85;;;;;;;22.59;100.00;94759.53;5055109;28;20051;-84
2023/06/25 07:57:23;;;;;;;3.92;2.20;;;;;;;22.44;100.00;94759.06;5060676;28;20075;-84
2023/06/25 07:59:48;;;;;;;4.03;2.28;;;;;;;22.43;100.00;94762.06;5075900;28;20067;-84
2023/06/25 08:02:14;;;;;;;5.43;2.22;;;;;;;22.41;100.00;94762.41;5058142;28;20052;-83
2023/06/25 08:04:39;;;;;;;5.20;1.85;;;;;;;22.59;100.00;94770.22;5041317;28;20048;-84
2023/06/25 08:07:05;;;;;;;5.38;1.98;;;;;;;22.61;100.00;94768.00;5057451;28;20029;-84
2023/06/25 08:09:31;;;;;;;4.75;2.20;;;;;;;22.58;100.00;94756.06;5057885;28;20064;-84
2023/06/25 08:11:57;;;;;;;3.20;1.90;;;;;;;22.60;100.00;94766.44;5058053;28;20033;-85
2023/06/25 08:14:22;;;;;;;6.07;2.28;;;;;;;22.61;100.00;94765.31;5075871;28;20036;-85
2023/06/25 08:16:47;;;;;;;3.47;2.25;;;;;;;22.67;100.00;94763.22;5057972;28;20086;-84
2023/06/25 08:19:13;;;;;;;4.35;2.00;;;;;;;22.66;100.00;94762.41;5057920;28;20032;-84
2023/06/25 08:21:38;;;;;;;3.20;1.92;;;;;;;22.88;100.00;94773.75;5057855;28;20399;-83
2023/06/25 08:24:04;;;;;;;6.07;2.35;;;;;;;22.77;100.00;94769.97;5058165;28;20044;-84
2023/06/25 08:26:29;;;;;;;3.92;2.17;;;;;;;22.85;100.00;94756.50;5075802;28;20043;-84
2023/06/25 08:28:55;;;;;;;2.95;1.83;;;;;;;22.97;100.00;94757.59;5074862;28;20043;-83
2023/06/25 08:31:21;;;;;;;11.10;2.65;;;;;;;22.79;100.00;94759.72;5074772;28;20032;-84
2023/06/25 08:33:46;;;;;;;5.40;2.38;;;;;;;23.01;100.00;94758.47;5057371;28;20051;-84
2023/06/25 08:36:12;;;;;;;6.35;2.33;;;;;;;23.12;100.00;94756.91;5057578;28;20041;-84
2023/06/25 08:38:37;;;;;;;4.20;1.88;;;;;;;23.05;100.00;94754.03;5058671;28;20039;-85
2023/06/25 08:41:03;;;;;;;3.47;2.10;;;;;;;23.01;100.00;94759.25;5049551;28;20503;-85
2023/06/25 08:43:28;;;;;;;4.45;2.28;;;;;;;23.19;100.00;94758.22;5072854;28;20038;-84
2023/06/25 08:45:54;;;;;;;4.93;2.20;;;;;;;23.17;100.00;94763.91;5057249;28;20044;-85
2023/06/25 08:48:23;;;;;;;5.05;2.20;;;;;;;23.01;100.00;94759.25;5056648;28;20154;-84
2023/06/25 08:50:54;;;;;;;5.13;2.60;;;;;;;23.14;100.00;94757.34;5057100;28;20139;-83
2023/06/25 08:53:19;;;;;;;5.40;2.35;;;;;;;22.95;100.00;94755.25;5056759;28;20032;-84
2023/06/25 08:55:47;;;;;;;5.30;2.40;;;;;;;23.40;99.33;94758.84;5056665;28;20044;-84
2023/06/25 08:58:12;;;;;;;5.60;2.25;;;;;;;23.51;100.00;94759.13;5040056;28;20044;-84
2023/06/25 09:00:38;;;;;;;5.53;2.50;;;;;;;23.41;96.41;94759.63;5057225;28;20036;-85
2023/06/25 09:03:03;;;;;;;5.93;2.78;;;;;;;23.15;84.70;94758.88;5056750;28;20048;-84
2023/06/25 09:05:28;;;;;;;3.22;2.40;;;;;;;23.08;86.78;94763.25;5040502;28;20082;-84
2023/06/25 09:07:55;;;;;;;4.60;2.35;;;;;;;22.76;89.74;94755.06;5056950;28;20067;-84
2023/06/25 09:10:20;;;;;;;3.55;2.53;;;;;;;22.90;88.16;94754.72;5043642;28;20098;-85
2023/06/25 09:12:48;;;;;;;6.68;2.92;;;;;;;23.09;100.00;94749.56;5036972;28;20037;-84
2023/06/25 09:15:22;;;;;;;5.15;2.78;;;;;;;23.33;96.72;94752.53;5054428;28;20357;-83
2023/06/25 09:17:47;;;;;;;3.58;2.50;;;;;;;23.48;96.07;94748.34;5037433;28;20048;-86
2023/06/25 09:20:13;;;;;;;3.70;2.30;;;;;;;23.42;76.28;94750.50;5054545;28;20032;-83
2023/06/25 09:25:52;;;;;;;3.60;2.42;;;;;;;23.33;81.65;94747.19;5113876;27;20376;-86
2023/06/25 09:28:18;;;;;;;3.80;2.50;;;;;;;23.41;83.86;94749.69;5094784;28;20030;-86
2023/06/25 09:30:43;;;;;;;4.93;2.80;;;;;;;23.32;81.98;94735.72;5112183;28;20062;-86
2023/06/25 09:33:10;;;;;;;5.57;3.00;;;;;;;23.45;99.60;94739.13;5110997;28;20404;-88
2023/06/25 09:35:36;;;;;;;7.18;2.40;;;;;;;23.65;94.69;94736.56;5111101;28;20024;-86
2023/06/25 09:38:02;;;;;;;4.90;3.25;;;;;;;23.78;98.02;94732.72;5093693;28;20073;-87
2023/06/25 09:40:28;;;;;;;4.68;2.65;;;;;;;23.92;100.00;94734.97;5110703;28;20020;-86
2023/06/25 09:42:55;;;;;;;8.60;3.00;;;;;;;23.83;98.58;94740.50;5110477;28;20130;-87
2023/06/25 09:45:22;;;;;;;3.78;2.65;;;;;;;24.00;100.00;94746.63;5110807;28;20024;-87
2023/06/25 09:47:49;;;;;;;9.35;2.53;;;;;;;24.05;100.00;94734.94;5110417;28;20028;-88
2023/06/25 09:50:19;;;;;;;4.25;2.80;;;;;;;24.07;100.00;94740.72;5110773;28;20359;-87
2023/06/25 09:52:54;;;;;;;5.57;2.50;;;;;;;24.15;100.00;94731.72;5093531;28;20374;-87
2023/06/25 09:55:23;;;;;;;5.00;2.70;;;;;;;24.28;100.00;94735.88;5110665;28;20038;-86
2023/06/25 09:57:52;;;;;;;4.85;2.67;;;;;;;24.43;100.00;94734.31;5093703;28;20085;-86
2023/06/25 10:00:19;;;;;;;3.97;2.90;;;;;;;24.38;100.00;94739.16;5110577;28;20024;-87
2023/06/25 10:02:45;;;;;;;8.40;2.97;;;;;;;24.33;100.00;94734.84;5110515;28;20054;-86
2023/06/25 10:05:11;;;;;;;5.38;2.95;;;;;;;24.25;93.06;94738.47;5110385;28;20020;-85
2023/06/25 10:07:37;;;;;;;3.80;2.65;;;;;;;24.36;96.50;94739.50;5096385;28;20024;-87
2023/06/25 10:10:03;;;;;;;5.32;3.15;;;;;;;24.18;100.00;94743.66;5102459;28;20377;-86
2023/06/25 10:12:33;;;;;;;3.78;2.80;;;;;;;24.34;100.00;94735.63;5110543;28;20032;-86
2023/06/25 10:15:01;;;;;;;5.40;2.70;;;;;;;24.36;100.00;94747.53;5104950;28;20019;-87
2023/06/25 10:17:26;;;;;;;12.57;3.20;;;;;;;24.48;86.44;94743.19;5100629;28;20122;-86
2023/06/25 10:19:56;;;;;;;6.95;2.63;;;;;;;24.21;79.56;94740.28;5093866;28;20131;-86
2023/06/25 10:22:26;;;;;;;5.63;2.38;;;;;;;24.49;88.97;94734.03;5110744;28;20482;-87
2023/06/25 10:24:53;;;;;;;3.53;2.75;;;;;;;24.33;91.55;94740.19;5110862;28;20059;-87
2023/06/25 10:27:27;;;;;;;3.85;2.42;;;;;;;24.15;95.97;94739.75;5110517;28;20034;-86
2023/06/25 10:29:53;;;;;;;6.68;2.85;;;;;;;23.94;92.37;94748.00;5110831;28;20103;-86
2023/06/25 10:32:23;;;;;;;3.97;2.80;;;;;;;24.37;93.34;94740.28;5110821;28;20028;-87
2023/06/25 10:34:53;;;;;;;6.05;3.42;;;;;;;24.39;85.37;94736.13;5109009;28;20110;-87
2023/06/25 10:37:19;;;;;;;4.47;2.63;;;;;;;24.50;83.46;94736.38;5096547;28;20027;-86
2023/06/25 10:39:44;;;;;;;6.53;2.72;;;;;;;24.71;84.50;94735.28;5097080;28;20493;-88
2023/06/25 10:42:13;;;;;;;6.93;2.72;;;;;;;24.82;90.26;94738.25;5097587;28;20387;-88
2023/06/25 10:44:39;;;;;;;3.67;2.90;;;;;;;24.79;77.63;94736.25;5097328;28;20020;-86
2023/06/25 10:47:06;;;;;;;5.50;2.85;;;;;;;25.00;86.58;94730.56;5079758;28;20046;-87
2023/06/25 10:49:32;;;;;;;6.93;3.13;;;;;;;24.91;88.83;94738.81;5097181;28;20500;-88
2023/06/25 10:52:07;;;;;;;3.38;2.70;;;;;;;25.07;85.43;94740.66;5080863;28;20028;-86
2023/06/25 10:54:33;;;;;;;6.18;2.90;;;;;;;24.77;93.03;94733.94;5097345;28;20020;-87
2023/06/25 10:57:06;;;;;;;5.55;3.10;;;;;;;24.84;81.67;94741.38;5096365;28;20031;-87
2023/06/25 10:59:32;;;;;;;3.72;2.63;;;;;;;25.06;83.06;94741.81;5080363;28;20027;-87
2023/06/25 11:02:17;;;;;;;7.65;2.85;;;;;;;24.91;81.38;94738.06;5098221;28;20028;-86
2023/06/25 11:04:53;;;;;;;4.57;2.53;;;;;;;25.15;76.99;94736.22;5097000;28;20031;-87
2023/06/25 11:07:19;;;;;;;3.75;2.53;;;;;;;25.16;75.68;94732.41;5079874;28;20330;-87
2023/06/25 11:09:50;;;;;;;4.72;2.80;;;;;;;25.25;81.23;94736.47;5096900;28;20074;-87
2023/06/25 11:12:16;;;;;;;4.68;2.67;;;;;;;25.33;80.78;94736.59;5097048;28;20051;-86
2023/06/25 11:14:41;;;;;;;6.60;2.83;;;;;;;25.00;83.51;94730.56;5096952;28;20066;-87
2023/06/25 11:17:07;;;;;;;4.75;3.05;;;;;;;24.96;82.65;94732.41;5096471;28;20028;-87
2023/06/25 11:19:32;;;;;;;6.03;3.00;;;;;;;25.18;78.32;94722.13;5080028;28;20035;-86
2023/06/25 11:21:57;;;;;;;7.47;2.90;;;;;;;25.22;80.06;94722.97;5079996;28;20032;-88
2023/06/25 11:24:23;;;;;;;4.25;3.00;;;;;;;25.16;79.54;94727.84;5096435;28;20055;-87
2023/06/25 11:26:56;;;;;;;5.25;3.13;;;;;;;24.92;74.10;94718.94;5079151;28;20032;-87